»·PEaware :: DCM206 KASE-KEGE

DCM206 :: KASE-KEGE

FLIGHT INFORMATION

Flight Status: Arrived
Operator: DotCom
More flights by this operator :: More flights under this callsign
Pilot: Nick L. (7253)
Aircraft: AIRBUS A319
(A319)
More flights by this aircraft type
Origin: KASE Aspen-Pitkin Co/Sardy
United States
Destination: KEGE Eagle Co Regl
United States
More flights between these airports :: More routes between these airports
Route: LINDZ9 RLG
File this flight plan on PilotEdge
Remarks:
Altitude:
(Current/Filed)
18,000ft
Speed:
(Current/Filed)
370kts
Departed: 15-Jul-19 09:04 AM
Arrived: 15-Jul-19 09:29 AM
Distance/Time
Traveled:
25nm/0:25
Distance/Time
To Go:
Arrived

Flight Plot

Page will automatically refresh every two minutes.

Flight plan parsing failed; only flown route is shown


Map Options




Map Legend


Flown Route
Filed Route
Departure Airport
Arrival Airport
Navaid (VOR, NDB)
Fix

Horizontal Profiles

Position Reports

Time Latitude Longitude Heading Altitude Ground
Speed
15-Jul-19 07:57 39.219267 -106.864722 72 7783ft 0kts
15-Jul-19 07:58 39.219267 -106.864722 72 7783ft 0kts
15-Jul-19 07:59 39.219267 -106.864722 72 7783ft 0kts
15-Jul-19 08:00 39.219267 -106.864722 72 7783ft 0kts
15-Jul-19 08:01 39.219267 -106.864722 72 7783ft 0kts
15-Jul-19 08:02 39.219267 -106.864722 72 7783ft 0kts
15-Jul-19 08:03 39.219267 -106.864722 72 7783ft 0kts
15-Jul-19 08:04 39.219267 -106.864722 72 7783ft 0kts
15-Jul-19 08:05 39.219267 -106.864722 72 7783ft 0kts
15-Jul-19 08:06 39.219267 -106.864722 73 7783ft 0kts
15-Jul-19 08:07 39.219267 -106.864722 73 7783ft 0kts
15-Jul-19 08:08 39.219267 -106.864722 73 7783ft 0kts
15-Jul-19 08:09 39.219267 -106.864722 73 7783ft 0kts
15-Jul-19 08:10 39.219267 -106.864722 73 7783ft 0kts
15-Jul-19 08:11 39.219267 -106.864722 73 7783ft 0kts
15-Jul-19 08:12 39.219267 -106.864722 73 7783ft 0kts
15-Jul-19 08:13 39.219267 -106.864722 73 7783ft 0kts
15-Jul-19 08:14 39.219267 -106.864722 73 7783ft 0kts
15-Jul-19 08:15 39.219267 -106.864722 73 7783ft 0kts
15-Jul-19 08:16 39.219267 -106.864722 73 7783ft 0kts
15-Jul-19 08:17 39.219267 -106.864722 73 7783ft 0kts
15-Jul-19 08:18 39.219267 -106.864722 73 7783ft 0kts
15-Jul-19 08:19 39.219267 -106.864722 73 7783ft 0kts
15-Jul-19 08:20 39.219267 -106.864722 73 7783ft 0kts
15-Jul-19 08:21 39.219267 -106.864722 73 7783ft 0kts
15-Jul-19 08:22 39.219267 -106.864722 73 7783ft 0kts
15-Jul-19 08:23 39.219267 -106.864722 73 7783ft 0kts
15-Jul-19 08:24 39.219267 -106.864722 73 7783ft 0kts
15-Jul-19 08:25 39.219267 -106.864722 73 7783ft 0kts
15-Jul-19 08:26 39.219267 -106.864722 73 7783ft 0kts
15-Jul-19 08:27 39.219267 -106.864722 73 7783ft 0kts
15-Jul-19 08:28 39.219267 -106.864722 73 7783ft 0kts
15-Jul-19 08:29 39.219267 -106.864722 73 7783ft 0kts
15-Jul-19 08:31 39.219267 -106.864722 73 7783ft 0kts
15-Jul-19 08:32 39.219267 -106.864722 73 7783ft 0kts
15-Jul-19 08:33 39.219267 -106.864722 73 7783ft 0kts
15-Jul-19 08:34 39.219267 -106.864722 73 7783ft 0kts
15-Jul-19 08:35 39.219267 -106.864722 73 7783ft 0kts
15-Jul-19 08:36 39.219267 -106.864722 73 7783ft 0kts
15-Jul-19 08:37 39.219267 -106.864722 73 7783ft 0kts
15-Jul-19 08:38 39.219267 -106.864722 73 7783ft 0kts
15-Jul-19 08:39 39.219267 -106.864722 73 7783ft 0kts
15-Jul-19 08:40 39.219267 -106.864722 73 7783ft 0kts
15-Jul-19 08:41 39.219267 -106.864722 73 7783ft 0kts
15-Jul-19 08:42 39.219267 -106.864722 73 7783ft 0kts
15-Jul-19 08:43 39.219267 -106.864722 73 7783ft 0kts
15-Jul-19 08:44 39.219267 -106.864722 73 7783ft 0kts
15-Jul-19 08:45 39.219267 -106.864722 73 7783ft 0kts
15-Jul-19 08:46 39.219267 -106.864722 73 7783ft 0kts
15-Jul-19 08:47 39.219267 -106.864722 73 7783ft 0kts
15-Jul-19 08:48 39.219267 -106.864722 73 7783ft 0kts
15-Jul-19 08:49 39.219267 -106.864722 73 7783ft 0kts
15-Jul-19 08:50 39.219267 -106.864722 73 7783ft 0kts
15-Jul-19 08:50 39.219267 -106.864722 73 7783ft 0kts
15-Jul-19 08:52 39.219267 -106.864722 73 7783ft 0kts
15-Jul-19 08:53 39.219267 -106.864722 73 7783ft 0kts
15-Jul-19 08:53 39.219267 -106.864722 73 7783ft 0kts
15-Jul-19 08:55 39.219267 -106.864722 73 7783ft 0kts
15-Jul-19 08:55 39.219267 -106.864722 73 7783ft 0kts
15-Jul-19 08:56 39.219267 -106.864722 73 7783ft 0kts
15-Jul-19 08:57 39.219267 -106.864722 73 7783ft 0kts
15-Jul-19 08:58 39.219263 -106.864719 73 7783ft 0kts
15-Jul-19 08:59 39.218742 -106.865385 203 7787ft 9kts
15-Jul-19 09:00 39.215573 -106.863999 158 7816ft 20kts
15-Jul-19 09:01 39.213005 -106.862803 159 7821ft 0kts
15-Jul-19 09:02 39.211782 -106.863398 324 7827ft 5kts
15-Jul-19 09:03 39.235394 -106.874404 343 8203ft 172kts
15-Jul-19 09:04 39.269999 -106.907836 282 10617ft 199kts
15-Jul-19 09:05 39.286586 -106.991260 283 12819ft 278kts
15-Jul-19 09:06 39.336919 -107.084871 311 14808ft 362kts
15-Jul-19 09:07 39.434827 -107.126015 16 17459ft 421kts
15-Jul-19 09:08 39.538027 -107.054809 26 18004ft 425kts
15-Jul-19 09:09 39.640525 -106.983395 28 17997ft 405kts
15-Jul-19 09:10 39.727369 -106.915026 29 18000ft 337kts
15-Jul-19 09:11 39.807794 -106.852244 29 18001ft 338kts
15-Jul-19 09:12 39.888436 -106.790413 29 17012ft 332kts
15-Jul-19 09:13 39.967275 -106.730914 29 15520ft 323kts
15-Jul-19 09:14 40.043708 -106.673759 29 14060ft 312kts
15-Jul-19 09:15 40.059742 -106.585477 119 13972ft 263kts
15-Jul-19 09:16 40.023221 -106.501613 131 13974ft 262kts
15-Jul-19 09:17 39.960862 -106.464743 182 13994ft 257kts
15-Jul-19 09:18 39.892128 -106.489269 198 14005ft 256kts
15-Jul-19 09:19 39.824302 -106.517843 198 14000ft 256kts
15-Jul-19 09:20 39.755953 -106.546535 198 13518ft 257kts
15-Jul-19 09:21 39.695171 -106.575520 228 12541ft 214kts
15-Jul-19 09:22 39.682831 -106.641884 258 11902ft 153kts
15-Jul-19 09:23 39.675187 -106.694689 259 10895ft 148kts
15-Jul-19 09:24 39.667587 -106.746729 258 9871ft 146kts
15-Jul-19 09:25 39.659811 -106.797638 258 8723ft 143kts
15-Jul-19 09:26 39.651535 -106.847348 257 7678ft 141kts
15-Jul-19 09:27 39.644924 -106.896368 260 6693ft 139kts
15-Jul-19 09:28 39.641947 -106.922797 226 6554ft 10kts
15-Jul-19 09:29 39.641193 -106.919936 82 6554ft 16kts
15-Jul-19 09:30 39.641974 -106.913091 79 6554ft 12kts

Navigation Log

Ident Type
Flight plan parsing failed, navigation log unavailable